sensor_id;sensor_type;location;lat;lon;timestamp;temperature;humidity
33594;DHT22;19920;52.242;20.940;2023-06-14T00:01:39;13.40;99.90
33594;DHT22;19920;52.242;20.940;2023-06-14T00:04:05;13.40;99.90
33594;DHT22;19920;52.242;20.940;2023-06-14T00:06:31;13.40;99.90
33594;DHT22;19920;52.242;20.940;2023-06-14T00:08:56;13.30;99.90
33594;DHT22;19920;52.242;20.940;2023-06-14T00:11:22;13.30;99.90
33594;DHT22;19920;52.242;20.940;2023-06-14T00:13:47;13.30;99.90
33594;DHT22;19920;52.242;20.940;2023-06-14T00:16:13;13.30;99.90
33594;DHT22;19920;52.242;20.940;2023-06-14T00:18:38;13.30;99.90
33594;DHT22;19920;52.242;20.940;2023-06-14T00:21:04;13.30;99.90
33594;DHT22;19920;52.242;20.940;2023-06-14T00:23:30;13.30;99.90
33594;DHT22;19920;52.242;20.940;2023-06-14T00:25:56;13.30;99.90
33594;DHT22;19920;52.242;20.940;2023-06-14T00:28:21;13.30;99.90
33594;DHT22;19920;52.242;20.940;2023-06-14T00:30:47;13.30;99.90
33594;DHT22;19920;52.242;20.940;2023-06-14T00:33:12;13.20;99.90
33594;DHT22;19920;52.242;20.940;2023-06-14T00:35:38;13.30;99.90
33594;DHT22;19920;52.242;20.940;2023-06-14T00:38:03;13.20;99.90
33594;DHT22;19920;52.242;20.940;2023-06-14T00:40:29;13.20;99.90
33594;DHT22;19920;52.242;20.940;2023-06-14T00:42:55;13.20;99.90
33594;DHT22;19920;52.242;20.940;2023-06-14T00:45:20;13.20;99.90
33594;DHT22;19920;52.242;20.940;2023-06-14T00:47:46;13.20;99.90
33594;DHT22;19920;52.242;20.940;2023-06-14T00:50:13;13.20;99.90
33594;DHT22;19920;52.242;20.940;2023-06-14T00:52:39;13.20;99.90
33594;DHT22;19920;52.242;20.940;2023-06-14T00:55:05;13.20;99.90
33594;DHT22;19920;52.242;20.940;2023-06-14T00:57:31;13.20;99.90
33594;DHT22;19920;52.242;20.940;2023-06-14T00:59:56;13.20;99.90
33594;DHT22;19920;52.242;20.940;2023-06-14T01:02:22;13.20;99.90
33594;DHT22;19920;52.242;20.940;2023-06-14T01:04:48;13.20;99.90
33594;DHT22;19920;52.242;20.940;2023-06-14T01:12:46;13.20;99.90
33594;DHT22;19920;52.242;20.940;2023-06-14T01:15:14;13.20;99.90
33594;DHT22;19920;52.242;20.940;2023-06-14T01:17:40;13.20;99.90
33594;DHT22;19920;52.242;20.940;2023-06-14T01:20:10;13.30;99.90
33594;DHT22;19920;52.242;20.940;2023-06-14T01:22:47;13.30;99.90
33594;DHT22;19920;52.242;20.940;2023-06-14T01:25:13;13.30;99.90
33594;DHT22;19920;52.242;20.940;2023-06-14T01:27:39;13.30;99.90
33594;DHT22;19920;52.242;20.940;2023-06-14T01:30:04;13.40;99.90
33594;DHT22;19920;52.242;20.940;2023-06-14T01:32:30;13.30;99.90
33594;DHT22;19920;52.242;20.940;2023-06-14T01:34:56;13.30;99.90
33594;DHT22;19920;52.242;20.940;2023-06-14T01:37:21;13.30;99.90
33594;DHT22;19920;52.242;20.940;2023-06-14T01:39:47;13.30;99.90
33594;DHT22;19920;52.242;20.940;2023-06-14T01:42:14;13.30;99.90
33594;DHT22;19920;52.242;20.940;2023-06-14T01:44:41;13.30;99.90
33594;DHT22;19920;52.242;20.940;2023-06-14T01:47:08;13.30;99.90
33594;DHT22;19920;52.242;20.940;2023-06-14T01:49:34;13.30;99.90
33594;DHT22;19920;52.242;20.940;2023-06-14T01:52:00;13.40;99.90
33594;DHT22;19920;52.242;20.940;2023-06-14T01:54:25;13.40;99.90
33594;DHT22;19920;52.242;20.940;2023-06-14T01:56:51;13.30;99.90
33594;DHT22;19920;52.242;20.940;2023-06-14T01:59:16;13.30;99.90
33594;DHT22;19920;52.242;20.940;2023-06-14T02:01:42;13.40;99.90
33594;DHT22;19920;52.242;20.940;2023-06-14T02:04:07;13.40;99.90
33594;DHT22;19920;52.242;20.940;2023-06-14T02:06:33;13.40;99.90
33594;DHT22;19920;52.242;20.940;2023-06-14T02:09:00;13.40;99.90
33594;DHT22;19920;52.242;20.940;2023-06-14T02:11:26;13.30;99.90
33594;DHT22;19920;52.242;20.940;2023-06-14T02:13:52;13.40;99.90
33594;DHT22;19920;52.242;20.940;2023-06-14T02:16:18;13.40;99.90
33594;DHT22;19920;52.242;20.940;2023-06-14T02:18:43;13.40;99.90
33594;DHT22;19920;52.242;20.940;2023-06-14T02:21:09;13.40;99.90
33594;DHT22;19920;52.242;20.940;2023-06-14T02:23:34;13.40;99.90
33594;DHT22;19920;52.242;20.940;2023-06-14T02:26:00;13.50;99.90
33594;DHT22;19920;52.242;20.940;2023-06-14T02:28:25;13.50;99.90
33594;DHT22;19920;52.242;20.940;2023-06-14T02:30:51;13.50;99.90
33594;DHT22;19920;52.242;20.940;2023-06-14T02:33:16;13.50;99.90
33594;DHT22;19920;52.242;20.940;2023-06-14T02:35:42;13.50;99.90
33594;DHT22;19920;52.242;20.940;2023-06-14T02:38:08;13.50;99.90
33594;DHT22;19920;52.242;20.940;2023-06-14T02:40:33;13.50;99.90
33594;DHT22;19920;52.242;20.940;2023-06-14T02:42:59;13.60;99.90
33594;DHT22;19920;52.242;20.940;2023-06-14T02:45:25;13.60;99.90
33594;DHT22;19920;52.242;20.940;2023-06-14T02:47:51;13.60;99.90
33594;DHT22;19920;52.242;20.940;2023-06-14T02:50:16;13.60;99.90
33594;DHT22;19920;52.242;20.940;2023-06-14T02:52:43;13.70;99.90
33594;DHT22;19920;52.242;20.940;2023-06-14T02:55:10;13.60;99.90
33594;DHT22;19920;52.242;20.940;2023-06-14T02:57:35;13.70;99.90
33594;DHT22;19920;52.242;20.940;2023-06-14T03:00:01;13.70;99.90
33594;DHT22;19920;52.242;20.940;2023-06-14T03:02:26;13.70;99.90
33594;DHT22;19920;52.242;20.940;2023-06-14T03:04:52;13.70;99.90
33594;DHT22;19920;52.242;20.940;2023-06-14T03:07:17;13.70;99.90
33594;DHT22;19920;52.242;20.940;2023-06-14T03:09:45;13.80;99.90
33594;DHT22;19920;52.242;20.940;2023-06-14T03:12:10;13.70;99.90
33594;DHT22;19920;52.242;20.940;2023-06-14T03:14:36;13.70;99.90
33594;DHT22;19920;52.242;20.940;2023-06-14T03:17:02;13.70;99.90
33594;DHT22;19920;52.242;20.940;2023-06-14T03:19:27;13.70;99.90
33594;DHT22;19920;52.242;20.940;2023-06-14T03:21:53;13.70;99.90
33594;DHT22;19920;52.242;20.940;2023-06-14T03:24:22;13.80;99.90
33594;DHT22;19920;52.242;20.940;2023-06-14T03:26:48;13.80;99.90
33594;DHT22;19920;52.242;20.940;2023-06-14T03:29:13;13.80;99.90
33594;DHT22;19920;52.242;20.940;2023-06-14T03:31:42;13.90;99.90
33594;DHT22;19920;52.242;20.940;2023-06-14T03:34:20;13.90;99.90
33594;DHT22;19920;52.242;20.940;2023-06-14T03:36:46;13.90;99.90
33594;DHT22;19920;52.242;20.940;2023-06-14T03:39:12;13.90;99.90
33594;DHT22;19920;52.242;20.940;2023-06-14T03:41:37;14.00;99.90
33594;DHT22;19920;52.242;20.940;2023-06-14T03:44:03;13.90;99.90
33594;DHT22;19920;52.242;20.940;2023-06-14T03:46:28;14.00;99.90
33594;DHT22;19920;52.242;20.940;2023-06-14T03:48:54;14.00;99.90
33594;DHT22;19920;52.242;20.940;2023-06-14T03:51:20;14.10;99.90
33594;DHT22;19920;52.242;20.940;2023-06-14T03:53:45;14.10;99.90
33594;DHT22;19920;52.242;20.940;2023-06-14T03:56:11;14.00;99.90
33594;DHT22;19920;52.242;20.940;2023-06-14T03:58:38;14.20;99.90
33594;DHT22;19920;52.242;20.940;2023-06-14T04:01:04;14.20;99.90
33594;DHT22;19920;52.242;20.940;2023-06-14T04:03:30;14.20;99.90
33594;DHT22;19920;52.242;20.940;2023-06-14T04:05:56;14.30;99.90
33594;DHT22;19920;52.242;20.940;2023-06-14T04:08:25;14.30;99.90
33594;DHT22;19920;52.242;20.940;2023-06-14T04:10:50;14.40;99.90
33594;DHT22;19920;52.242;20.940;2023-06-14T04:13:16;14.40;99.90
33594;DHT22;19920;52.242;20.940;2023-06-14T04:15:42;14.40;99.90
33594;DHT22;19920;52.242;20.940;2023-06-14T04:18:09;14.40;99.90
33594;DHT22;19920;52.242;20.940;2023-06-14T04:20:34;14.40;99.90
33594;DHT22;19920;52.242;20.940;2023-06-14T04:23:13;14.50;99.90
33594;DHT22;19920;52.242;20.940;2023-06-14T04:25:39;14.60;99.90
33594;DHT22;19920;52.242;20.940;2023-06-14T04:28:05;14.60;99.90
33594;DHT22;19920;52.242;20.940;2023-06-14T04:30:34;14.70;99.90
33594;DHT22;19920;52.242;20.940;2023-06-14T04:33:01;14.80;99.90
33594;DHT22;19920;52.242;20.940;2023-06-14T04:35:31;14.80;99.90
33594;DHT22;19920;52.242;20.940;2023-06-14T04:37:57;14.80;99.90
33594;DHT22;19920;52.242;20.940;2023-06-14T04:40:23;14.80;99.90
33594;DHT22;19920;52.242;20.940;2023-06-14T04:42:49;14.80;99.90
33594;DHT22;19920;52.242;20.940;2023-06-14T04:45:16;14.80;99.90
33594;DHT22;19920;52.242;20.940;2023-06-14T04:47:42;14.90;99.90
33594;DHT22;19920;52.242;20.940;2023-06-14T04:50:09;14.90;99.90
33594;DHT22;19920;52.242;20.940;2023-06-14T04:52:36;14.90;99.90
33594;DHT22;19920;52.242;20.940;2023-06-14T04:55:02;15.00;99.90
33594;DHT22;19920;52.242;20.940;2023-06-14T04:57:28;15.00;99.90
33594;DHT22;19920;52.242;20.940;2023-06-14T04:59:54;15.00;99.90
33594;DHT22;19920;52.242;20.940;2023-06-14T05:02:23;15.10;99.90
33594;DHT22;19920;52.242;20.940;2023-06-14T05:04:49;15.10;99.90
33594;DHT22;19920;52.242;20.940;2023-06-14T05:07:14;15.10;99.90
33594;DHT22;19920;52.242;20.940;2023-06-14T05:09:40;15.20;99.90
33594;DHT22;19920;52.242;20.940;2023-06-14T05:12:05;15.20;99.90
33594;DHT22;19920;52.242;20.940;2023-06-14T05:14:33;15.30;99.90
33594;DHT22;19920;52.242;20.940;2023-06-14T05:16:59;15.30;99.90
33594;DHT22;19920;52.242;20.940;2023-06-14T05:19:24;15.20;99.90
33594;DHT22;19920;52.242;20.940;2023-06-14T05:21:50;15.00;99.90
33594;DHT22;19920;52.242;20.940;2023-06-14T05:24:16;15.10;99.90
33594;DHT22;19920;52.242;20.940;2023-06-14T05:26:48;15.10;99.90
33594;DHT22;19920;52.242;20.940;2023-06-14T05:29:14;15.10;99.90
33594;DHT22;19920;52.242;20.940;2023-06-14T05:31:40;15.10;99.90
33594;DHT22;19920;52.242;20.940;2023-06-14T05:34:05;15.10;99.90
33594;DHT22;19920;52.242;20.940;2023-06-14T05:36:31;15.00;99.90
33594;DHT22;19920;52.242;20.940;2023-06-14T05:38:56;15.00;99.90
33594;DHT22;19920;52.242;20.940;2023-06-14T05:41:28;14.90;99.90
33594;DHT22;19920;52.242;20.940;2023-06-14T05:43:54;15.00;99.90
33594;DHT22;19920;52.242;20.940;2023-06-14T05:46:19;15.10;99.90
33594;DHT22;19920;52.242;20.940;2023-06-14T05:48:48;15.80;99.90
33594;DHT22;19920;52.242;20.940;2023-06-14T05:51:13;15.30;99.90
33594;DHT22;19920;52.242;20.940;2023-06-14T05:53:39;15.50;99.90
33594;DHT22;19920;52.242;20.940;2023-06-14T05:56:05;15.60;99.90
33594;DHT22;19920;52.242;20.940;2023-06-14T05:58:31;15.60;99.90
33594;DHT22;19920;52.242;20.940;2023-06-14T06:00:56;15.60;99.90
33594;DHT22;19920;52.242;20.940;2023-06-14T06:03:23;15.70;99.90
33594;DHT22;19920;52.242;20.940;2023-06-14T06:05:48;15.80;99.90
33594;DHT22;19920;52.242;20.940;2023-06-14T06:08:14;15.90;99.90
33594;DHT22;19920;52.242;20.940;2023-06-14T06:10:39;15.90;99.90
33594;DHT22;19920;52.242;20.940;2023-06-14T06:13:05;15.80;99.90
33594;DHT22;19920;52.242;20.940;2023-06-14T06:15:30;16.00;99.90
33594;DHT22;19920;52.242;20.940;2023-06-14T06:17:56;16.10;99.90
33594;DHT22;19920;52.242;20.940;2023-06-14T06:20:22;16.30;99.90
33594;DHT22;19920;52.242;20.940;2023-06-14T06:22:52;16.50;99.90
33594;DHT22;19920;52.242;20.940;2023-06-14T06:25:18;16.60;99.90
33594;DHT22;19920;52.242;20.940;2023-06-14T06:27:44;16.70;99.90
33594;DHT22;19920;52.242;20.940;2023-06-14T06:30:10;16.60;99.90
33594;DHT22;19920;52.242;20.940;2023-06-14T06:32:36;16.60;99.90
33594;DHT22;19920;52.242;20.940;2023-06-14T06:35:01;16.70;99.90
33594;DHT22;19920;52.242;20.940;2023-06-14T06:37:27;16.70;99.90
33594;DHT22;19920;52.242;20.940;2023-06-14T06:39:52;16.70;99.90
33594;DHT22;19920;52.242;20.940;2023-06-14T06:42:18;16.60;99.90
33594;DHT22;19920;52.242;20.940;2023-06-14T06:44:43;16.60;99.90
33594;DHT22;19920;52.242;20.940;2023-06-14T06:47:09;16.70;99.90
33594;DHT22;19920;52.242;20.940;2023-06-14T06:49:36;16.60;99.90
33594;DHT22;19920;52.242;20.940;2023-06-14T06:52:02;16.60;99.90
33594;DHT22;19920;52.242;20.940;2023-06-14T06:54:28;16.70;99.90
33594;DHT22;19920;52.242;20.940;2023-06-14T06:56:54;16.90;99.90
33594;DHT22;19920;52.242;20.940;2023-06-14T06:59:19;17.00;99.90
33594;DHT22;19920;52.242;20.940;2023-06-14T07:01:46;17.10;99.90
33594;DHT22;19920;52.242;20.940;2023-06-14T07:04:11;16.90;99.90
33594;DHT22;19920;52.242;20.940;2023-06-14T07:06:37;16.90;99.90
33594;DHT22;19920;52.242;20.940;2023-06-14T07:09:03;16.90;99.90
33594;DHT22;19920;52.242;20.940;2023-06-14T07:11:30;17.00;99.90
33594;DHT22;19920;52.242;20.940;2023-06-14T07:13:56;17.00;99.90
33594;DHT22;19920;52.242;20.940;2023-06-14T07:16:21;16.80;99.90
33594;DHT22;19920;52.242;20.940;2023-06-14T07:18:47;16.80;99.90
33594;DHT22;19920;52.242;20.940;2023-06-14T07:21:12;16.70;99.90
33594;DHT22;19920;52.242;20.940;2023-06-14T07:23:38;16.70;99.90
33594;DHT22;19920;52.242;20.940;2023-06-14T07:26:03;16.70;99.90
33594;DHT22;19920;52.242;20.940;2023-06-14T07:28:29;16.70;99.90
33594;DHT22;19920;52.242;20.940;2023-06-14T07:30:54;16.80;99.90
33594;DHT22;19920;52.242;20.940;2023-06-14T07:33:20;16.70;99.90
33594;DHT22;19920;52.242;20.940;2023-06-14T07:35:45;17.00;99.90
33594;DHT22;19920;52.242;20.940;2023-06-14T07:38:11;17.10;99.90
33594;DHT22;19920;52.242;20.940;2023-06-14T07:40:36;17.20;99.90
33594;DHT22;19920;52.242;20.940;2023-06-14T07:43:02;17.20;99.90
33594;DHT22;19920;52.242;20.940;2023-06-14T07:45:27;17.30;99.90
33594;DHT22;19920;52.242;20.940;2023-06-14T07:47:53;17.80;99.90
33594;DHT22;19920;52.242;20.940;2023-06-14T07:50:19;17.90;99.90
33594;DHT22;19920;52.242;20.940;2023-06-14T07:52:45;18.30;99.90
33594;DHT22;19920;52.242;20.940;2023-06-14T07:55:10;18.20;99.90
33594;DHT22;19920;52.242;20.940;2023-06-14T07:57:36;18.40;99.90
33594;DHT22;19920;52.242;20.940;2023-06-14T08:00:02;18.40;99.90
33594;DHT22;19920;52.242;20.940;2023-06-14T08:02:28;18.50;99.90
33594;DHT22;19920;52.242;20.940;2023-06-14T08:04:53;18.30;99.90
33594;DHT22;19920;52.242;20.940;2023-06-14T08:07:19;18.30;99.90
33594;DHT22;19920;52.242;20.940;2023-06-14T08:09:45;18.20;99.90
33594;DHT22;19920;52.242;20.940;2023-06-14T08:12:10;18.20;99.90
33594;DHT22;19920;52.242;20.940;2023-06-14T08:14:36;18.10;99.90
33594;DHT22;19920;52.242;20.940;2023-06-14T08:17:01;18.30;99.90
33594;DHT22;19920;52.242;20.940;2023-06-14T08:19:27;18.40;99.90
33594;DHT22;19920;52.242;20.940;2023-06-14T08:21:53;18.30;99.90
33594;DHT22;19920;52.242;20.940;2023-06-14T08:24:23;18.60;99.90
33594;DHT22;19920;52.242;20.940;2023-06-14T08:26:55;18.60;99.90
33594;DHT22;19920;52.242;20.940;2023-06-14T08:29:21;18.80;99.90
33594;DHT22;19920;52.242;20.940;2023-06-14T08:31:47;19.00;99.90
33594;DHT22;19920;52.242;20.940;2023-06-14T08:34:13;19.00;99.90
33594;DHT22;19920;52.242;20.940;2023-06-14T08:36:38;19.10;99.90
33594;DHT22;19920;52.242;20.940;2023-06-14T08:39:04;19.40;99.90
33594;DHT22;19920;52.242;20.940;2023-06-14T08:41:29;19.50;99.90
33594;DHT22;19920;52.242;20.940;2023-06-14T08:43:55;19.30;99.90
33594;DHT22;19920;52.242;20.940;2023-06-14T08:46:21;19.20;99.90
33594;DHT22;19920;52.242;20.940;2023-06-14T08:48:50;19.20;99.90
33594;DHT22;19920;52.242;20.940;2023-06-14T08:51:18;19.00;99.90
33594;DHT22;19920;52.242;20.940;2023-06-14T08:53:43;19.10;99.90
33594;DHT22;19920;52.242;20.940;2023-06-14T08:56:09;19.10;99.90
33594;DHT22;19920;52.242;20.940;2023-06-14T08:58:44;19.10;99.90
33594;DHT22;19920;52.242;20.940;2023-06-14T09:01:13;19.00;99.90
33594;DHT22;19920;52.242;20.940;2023-06-14T09:03:43;18.80;99.90
33594;DHT22;19920;52.242;20.940;2023-06-14T09:06:09;18.90;99.90
33594;DHT22;19920;52.242;20.940;2023-06-14T09:08:45;19.10;99.90
33594;DHT22;19920;52.242;20.940;2023-06-14T09:11:12;19.30;99.90
33594;DHT22;19920;52.242;20.940;2023-06-14T09:13:38;19.00;99.90
33594;DHT22;19920;52.242;20.940;2023-06-14T09:16:04;19.00;99.90
33594;DHT22;19920;52.242;20.940;2023-06-14T09:21:01;19.50;99.90
33594;DHT22;19920;52.242;20.940;2023-06-14T09:23:26;19.70;99.90
33594;DHT22;19920;52.242;20.940;2023-06-14T09:25:52;19.60;99.90
33594;DHT22;19920;52.242;20.940;2023-06-14T09:28:17;19.80;99.90
33594;DHT22;19920;52.242;20.940;2023-06-14T09:30:43;20.10;99.90
33594;DHT22;19920;52.242;20.940;2023-06-14T09:33:09;20.10;99.90
33594;DHT22;19920;52.242;20.940;2023-06-14T09:35:34;20.30;99.90
33594;DHT22;19920;52.242;20.940;2023-06-14T09:38:01;20.50;99.90
33594;DHT22;19920;52.242;20.940;2023-06-14T09:40:26;20.30;99.90
33594;DHT22;19920;52.242;20.940;2023-06-14T09:42:52;20.10;99.90
33594;DHT22;19920;52.242;20.940;2023-06-14T09:45:18;20.00;99.90
33594;DHT22;19920;52.242;20.940;2023-06-14T09:47:49;20.10;99.90
33594;DHT22;19920;52.242;20.940;2023-06-14T09:50:15;19.80;99.90
33594;DHT22;19920;52.242;20.940;2023-06-14T09:52:41;19.60;99.90
33594;DHT22;19920;52.242;20.940;2023-06-14T09:55:11;19.50;99.90
33594;DHT22;19920;52.242;20.940;2023-06-14T09:57:37;19.50;99.90
33594;DHT22;19920;52.242;20.940;2023-06-14T10:00:06;19.50;99.90
33594;DHT22;19920;52.242;20.940;2023-06-14T10:02:36;19.60;99.90
33594;DHT22;19920;52.242;20.940;2023-06-14T10:05:03;19.50;99.90
33594;DHT22;19920;52.242;20.940;2023-06-14T10:07:32;19.60;99.90
33594;DHT22;19920;52.242;20.940;2023-06-14T10:09:57;19.90;99.90
33594;DHT22;19920;52.242;20.940;2023-06-14T10:12:23;20.20;99.90
33594;DHT22;19920;52.242;20.940;2023-06-14T10:14:49;19.90;99.90
33594;DHT22;19920;52.242;20.940;2023-06-14T10:17:30;19.90;99.90
33594;DHT22;19920;52.242;20.940;2023-06-14T10:22:45;20.10;99.90
33594;DHT22;19920;52.242;20.940;2023-06-14T10:25:12;20.30;99.90
33594;DHT22;19920;52.242;20.940;2023-06-14T10:27:38;20.20;99.90
33594;DHT22;19920;52.242;20.940;2023-06-14T10:30:04;20.40;99.90
33594;DHT22;19920;52.242;20.940;2023-06-14T10:32:31;20.50;99.90
33594;DHT22;19920;52.242;20.940;2023-06-14T10:35:15;20.50;99.90
33594;DHT22;19920;52.242;20.940;2023-06-14T10:37:41;20.40;99.90
33594;DHT22;19920;52.242;20.940;2023-06-14T10:40:07;20.40;99.90
33594;DHT22;19920;52.242;20.940;2023-06-14T10:42:34;20.70;99.90
33594;DHT22;19920;52.242;20.940;2023-06-14T10:45:00;20.80;99.90
33594;DHT22;19920;52.242;20.940;2023-06-14T10:50:02;21.00;99.90
33594;DHT22;19920;52.242;20.940;2023-06-14T10:52:28;21.10;99.90
33594;DHT22;19920;52.242;20.940;2023-06-14T10:55:10;21.40;99.90
33594;DHT22;19920;52.242;20.940;2023-06-14T10:57:44;21.40;99.90
33594;DHT22;19920;52.242;20.940;2023-06-14T11:00:11;21.30;99.90
33594;DHT22;19920;52.242;20.940;2023-06-14T11:16:38;21.80;99.90
33594;DHT22;19920;52.242;20.940;2023-06-14T11:19:03;22.00;99.90
33594;DHT22;19920;52.242;20.940;2023-06-14T11:21:29;22.10;99.90
33594;DHT22;19920;52.242;20.940;2023-06-14T11:23:57;22.00;99.90
33594;DHT22;19920;52.242;20.940;2023-06-14T11:26:30;22.10;99.90
33594;DHT22;19920;52.242;20.940;2023-06-14T11:29:00;22.10;99.90
33594;DHT22;19920;52.242;20.940;2023-06-14T11:31:27;22.30;99.90
33594;DHT22;19920;52.242;20.940;2023-06-14T11:33:58;22.40;99.90
33594;DHT22;19920;52.242;20.940;2023-06-14T11:36:31;22.10;99.90
33594;DHT22;19920;52.242;20.940;2023-06-14T11:39:04;21.70;99.90
33594;DHT22;19920;52.242;20.940;2023-06-14T11:41:40;21.70;99.90
33594;DHT22;19920;52.242;20.940;2023-06-14T11:44:07;21.50;99.90
33594;DHT22;19920;52.242;20.940;2023-06-14T11:46:33;21.20;99.90
33594;DHT22;19920;52.242;20.940;2023-06-14T11:48:59;21.40;99.90
33594;DHT22;19920;52.242;20.940;2023-06-14T12:45:26;21.30;99.90
33594;DHT22;19920;52.242;20.940;2023-06-14T12:47:51;21.90;99.90
33594;DHT22;19920;52.242;20.940;2023-06-14T12:50:17;21.70;99.90
33594;DHT22;19920;52.242;20.940;2023-06-14T12:52:43;21.80;99.90
33594;DHT22;19920;52.242;20.940;2023-06-14T12:55:08;21.60;99.90
33594;DHT22;19920;52.242;20.940;2023-06-14T12:57:34;21.60;99.90
33594;DHT22;19920;52.242;20.940;2023-06-14T13:00:02;21.80;99.90
33594;DHT22;19920;52.242;20.940;2023-06-14T13:02:28;22.20;99.90
33594;DHT22;19920;52.242;20.940;2023-06-14T13:04:54;22.60;99.90
33594;DHT22;19920;52.242;20.940;2023-06-14T13:07:20;22.60;99.90
33594;DHT22;19920;52.242;20.940;2023-06-14T13:09:45;22.70;99.90
33594;DHT22;19920;52.242;20.940;2023-06-14T13:12:11;22.90;99.90
33594;DHT22;19920;52.242;20.940;2023-06-14T13:14:38;22.90;99.90
33594;DHT22;19920;52.242;20.940;2023-06-14T13:17:04;22.60;99.90
33594;DHT22;19920;52.242;20.940;2023-06-14T13:19:31;22.70;99.90
33594;DHT22;19920;52.242;20.940;2023-06-14T13:21:56;22.60;99.90
33594;DHT22;19920;52.242;20.940;2023-06-14T13:24:22;22.60;99.90
33594;DHT22;19920;52.242;20.940;2023-06-14T13:26:47;22.80;99.90
33594;DHT22;19920;52.242;20.940;2023-06-14T13:29:13;22.60;99.90
33594;DHT22;19920;52.242;20.940;2023-06-14T13:31:39;22.60;99.90
33594;DHT22;19920;52.242;20.940;2023-06-14T13:34:04;22.90;99.90
33594;DHT22;19920;52.242;20.940;2023-06-14T13:36:31;23.30;99.90
33594;DHT22;19920;52.242;20.940;2023-06-14T13:38:56;23.90;99.90
33594;DHT22;19920;52.242;20.940;2023-06-14T13:41:25;24.50;99.90
33594;DHT22;19920;52.242;20.940;2023-06-14T13:43:57;24.40;99.90
33594;DHT22;19920;52.242;20.940;2023-06-14T13:46:23;25.30;99.90
33594;DHT22;19920;52.242;20.940;2023-06-14T13:48:48;26.00;99.90
33594;DHT22;19920;52.242;20.940;2023-06-14T13:51:14;26.20;99.90
33594;DHT22;19920;52.242;20.940;2023-06-14T13:53:40;25.20;99.90
33594;DHT22;19920;52.242;20.940;2023-06-14T13:56:05;25.00;99.90
33594;DHT22;19920;52.242;20.940;2023-06-14T13:58:31;24.70;99.90
33594;DHT22;19920;52.242;20.940;2023-06-14T14:00:57;24.30;99.90
33594;DHT22;19920;52.242;20.940;2023-06-14T14:03:24;24.00;99.90
33594;DHT22;19920;52.242;20.940;2023-06-14T14:05:50;23.00;99.90
33594;DHT22;19920;52.242;20.940;2023-06-14T14:08:16;22.80;99.90
33594;DHT22;19920;52.242;20.940;2023-06-14T14:10:41;22.70;99.90
33594;DHT22;19920;52.242;20.940;2023-06-14T14:13:07;23.50;99.90
33594;DHT22;19920;52.242;20.940;2023-06-14T14:15:32;24.20;99.90
33594;DHT22;19920;52.242;20.940;2023-06-14T14:18:00;25.40;99.90
33594;DHT22;19920;52.242;20.940;2023-06-14T14:20:25;25.30;99.90
33594;DHT22;19920;52.242;20.940;2023-06-14T14:22:51;26.00;99.90
33594;DHT22;19920;52.242;20.940;2023-06-14T14:25:17;26.30;99.90
33594;DHT22;19920;52.242;20.940;2023-06-14T14:27:42;26.20;99.90
33594;DHT22;19920;52.242;20.940;2023-06-14T14:30:08;25.70;99.90
33594;DHT22;19920;52.242;20.940;2023-06-14T14:32:34;25.10;99.90
33594;DHT22;19920;52.242;20.940;2023-06-14T14:35:00;24.20;99.90
33594;DHT22;19920;52.242;20.940;2023-06-14T14:37:25;23.60;99.90
33594;DHT22;19920;52.242;20.940;2023-06-14T14:39:51;23.40;99.90
33594;DHT22;19920;52.242;20.940;2023-06-14T14:42:17;23.20;99.90
33594;DHT22;19920;52.242;20.940;2023-06-14T14:44:43;22.80;99.90
33594;DHT22;19920;52.242;20.940;2023-06-14T14:47:10;22.50;99.90
33594;DHT22;19920;52.242;20.940;2023-06-14T14:49:35;22.90;99.90
33594;DHT22;19920;52.242;20.940;2023-06-14T14:52:01;23.00;99.90
33594;DHT22;19920;52.242;20.940;2023-06-14T14:54:27;22.60;99.90
33594;DHT22;19920;52.242;20.940;2023-06-14T14:56:54;22.10;99.90
33594;DHT22;19920;52.242;20.940;2023-06-14T14:59:20;22.10;99.90
33594;DHT22;19920;52.242;20.940;2023-06-14T15:01:47;21.80;99.90
33594;DHT22;19920;52.242;20.940;2023-06-14T15:04:13;21.60;99.90
33594;DHT22;19920;52.242;20.940;2023-06-14T15:06:38;21.70;99.90
33594;DHT22;19920;52.242;20.940;2023-06-14T15:09:05;22.10;99.90
33594;DHT22;19920;52.242;20.940;2023-06-14T15:11:31;22.50;99.90
33594;DHT22;19920;52.242;20.940;2023-06-14T15:13:57;23.20;99.90
33594;DHT22;19920;52.242;20.940;2023-06-14T15:16:22;23.30;99.90
33594;DHT22;19920;52.242;20.940;2023-06-14T15:18:48;23.20;99.90
33594;DHT22;19920;52.242;20.940;2023-06-14T15:21:14;22.50;99.90
33594;DHT22;19920;52.242;20.940;2023-06-14T15:23:39;22.10;99.90
33594;DHT22;19920;52.242;20.940;2023-06-14T15:26:05;21.70;99.90
33594;DHT22;19920;52.242;20.940;2023-06-14T15:28:31;21.50;99.90
33594;DHT22;19920;52.242;20.940;2023-06-14T15:30:58;21.10;99.90
33594;DHT22;19920;52.242;20.940;2023-06-14T15:33:24;21.30;99.90
33594;DHT22;19920;52.242;20.940;2023-06-14T15:35:50;21.40;99.90
33594;DHT22;19920;52.242;20.940;2023-06-14T15:38:16;22.50;99.90
33594;DHT22;19920;52.242;20.940;2023-06-14T15:40:41;24.30;99.90
33594;DHT22;19920;52.242;20.940;2023-06-14T15:43:07;26.30;99.90
33594;DHT22;19920;52.242;20.940;2023-06-14T15:45:32;27.10;99.90
33594;DHT22;19920;52.242;20.940;2023-06-14T15:47:58;27.00;99.90
33594;DHT22;19920;52.242;20.940;2023-06-14T15:50:25;26.60;99.90
33594;DHT22;19920;52.242;20.940;2023-06-14T15:52:51;26.40;99.90
33594;DHT22;19920;52.242;20.940;2023-06-14T15:55:17;26.60;99.90
33594;DHT22;19920;52.242;20.940;2023-06-14T15:57:42;26.30;99.90
33594;DHT22;19920;52.242;20.940;2023-06-14T16:00:08;26.30;99.90
33594;DHT22;19920;52.242;20.940;2023-06-14T16:02:34;26.80;99.90
33594;DHT22;19920;52.242;20.940;2023-06-14T16:05:00;27.10;99.90
33594;DHT22;19920;52.242;20.940;2023-06-14T16:07:26;28.10;99.90
33594;DHT22;19920;52.242;20.940;2023-06-14T16:09:51;27.40;99.90
33594;DHT22;19920;52.242;20.940;2023-06-14T16:12:17;26.30;99.90
33594;DHT22;19920;52.242;20.940;2023-06-14T16:14:43;25.10;99.90
33594;DHT22;19920;52.242;20.940;2023-06-14T16:17:08;24.60;99.90
33594;DHT22;19920;52.242;20.940;2023-06-14T16:19:34;23.70;99.90
33594;DHT22;19920;52.242;20.940;2023-06-14T16:22:00;23.00;99.90
33594;DHT22;19920;52.242;20.940;2023-06-14T16:24:25;22.60;99.90
33594;DHT22;19920;52.242;20.940;2023-06-14T16:26:51;22.00;99.90
33594;DHT22;19920;52.242;20.940;2023-06-14T16:29:19;21.60;99.90
33594;DHT22;19920;52.242;20.940;2023-06-14T16:31:45;21.40;99.90